createdAt,value
2023-03-20T00:00:32.535Z,6.32
2023-03-20T00:03:02.523Z,5.53
2023-03-20T00:05:32.042Z,8.30
2023-03-20T00:08:01.951Z,6.43
2023-03-20T00:10:35.761Z,5.35
2023-03-20T00:13:04.700Z,6.93
2023-03-20T00:15:36.551Z,6.72
2023-03-20T00:18:06.483Z,8.30
2023-03-20T00:20:34.385Z,7.28
2023-03-20T00:23:04.252Z,11.88
2023-03-20T00:25:32.512Z,7.88
2023-03-20T00:28:00.387Z,7.57
2023-03-20T00:30:31.207Z,8.95
2023-03-20T00:33:00.236Z,10.88
2023-03-20T00:35:30.406Z,10.80
2023-03-20T00:37:59.267Z,9.05
2023-03-20T00:40:32.341Z,8.35
2023-03-20T00:43:02.247Z,8.60
2023-03-20T00:45:31.571Z,11.23
2023-03-20T00:48:00.707Z,12.20
2023-03-20T00:50:30.758Z,11.18
2023-03-20T00:52:59.931Z,11.80
2023-03-20T00:55:30.788Z,10.38
2023-03-20T00:58:00.342Z,10.13
2023-03-20T01:00:37.992Z,13.75
2023-03-20T01:03:13.387Z,11.50
2023-03-20T01:05:41.356Z,11.30
2023-03-20T01:08:17.093Z,12.85
2023-03-20T01:10:47.565Z,12.60
2023-03-20T01:13:21.316Z,10.23
2023-03-20T01:15:50.239Z,12.77
2023-03-20T01:18:19.029Z,12.68
2023-03-20T01:20:47.344Z,12.63
2023-03-20T01:23:15.393Z,12.45
2023-03-20T01:25:43.707Z,13.18
2023-03-20T01:28:18.380Z,16.00
2023-03-20T01:30:47.118Z,14.70
2023-03-20T01:33:17.090Z,13.90
2023-03-20T01:35:45.903Z,12.00
2023-03-20T01:38:16.321Z,15.00
2023-03-20T01:40:54.199Z,15.60
2023-03-20T01:43:25.124Z,15.60
2023-03-20T01:46:00.398Z,14.65
2023-03-20T01:48:37.821Z,13.38
2023-03-20T01:51:05.998Z,14.13
2023-03-20T01:53:34.049Z,16.58
2023-03-20T01:56:02.449Z,14.52
2023-03-20T01:58:37.380Z,13.40
2023-03-20T02:01:06.820Z,12.13
2023-03-20T02:03:35.386Z,15.27
2023-03-20T02:06:03.142Z,13.18
2023-03-20T02:08:32.848Z,15.88
2023-03-20T02:11:03.183Z,13.65
2023-03-20T02:13:33.774Z,16.02
2023-03-20T02:16:07.423Z,14.10
2023-03-20T02:18:36.206Z,16.50
2023-03-20T02:21:38.344Z,10.88
2023-03-20T02:24:32.275Z,13.13
2023-03-20T02:27:07.441Z,14.88
2023-03-20T02:33:15.791Z,14.77
2023-03-20T02:36:00.390Z,16.75
2023-03-20T02:38:45.175Z,15.32
2023-03-20T02:41:23.074Z,13.27
2023-03-20T02:44:01.466Z,17.13
2023-03-20T02:46:37.338Z,15.02
2023-03-20T02:49:15.642Z,14.80
2023-03-20T02:51:51.757Z,13.82
2023-03-20T02:54:29.477Z,16.48
2023-03-20T02:57:04.199Z,14.60
2023-03-20T02:59:37.718Z,15.40
2023-03-20T03:02:09.595Z,17.13
2023-03-20T03:04:41.733Z,15.95
2023-03-20T03:07:12.415Z,15.30
2023-03-20T03:09:46.242Z,16.92
2023-03-20T03:12:18.929Z,12.85
2023-03-20T03:14:49.783Z,10.80
2023-03-20T03:17:19.860Z,16.58
2023-03-20T03:19:51.098Z,13.55
2023-03-20T03:22:20.016Z,13.43
2023-03-20T03:24:52.076Z,12.77
2023-03-20T03:27:24.251Z,21.98
2023-03-20T03:29:56.989Z,14.63
2023-03-20T03:32:30.579Z,18.60
2023-03-20T03:34:59.764Z,12.70
2023-03-20T03:37:47.014Z,11.30
2023-03-20T03:40:25.375Z,15.57
2023-03-20T03:42:58.850Z,12.35
2023-03-20T03:45:34.376Z,21.33
2023-03-20T03:48:08.095Z,14.40
2023-03-20T03:50:46.404Z,15.77
2023-03-20T03:53:16.022Z,13.07
2023-03-20T03:55:49.310Z,13.35
2023-03-20T03:58:21.518Z,19.48
2023-03-20T04:00:52.888Z,15.25
2023-03-20T04:03:24.160Z,14.18
2023-03-20T04:05:55.711Z,11.82
2023-03-20T04:08:23.473Z,11.35
2023-03-20T04:10:53.044Z,11.05
2023-03-20T04:13:20.991Z,11.20
2023-03-20T04:15:48.724Z,11.77
2023-03-20T04:18:18.783Z,12.00
2023-03-20T04:20:47.702Z,10.20
2023-03-20T04:23:16.122Z,13.30
2023-03-20T04:25:44.251Z,11.00
2023-03-20T04:28:16.299Z,11.82
2023-03-20T04:30:48.281Z,10.48
2023-03-20T04:33:16.474Z,11.73
2023-03-20T04:35:44.424Z,13.15
2023-03-20T04:38:12.674Z,12.30
2023-03-20T04:40:40.615Z,13.60
2023-03-20T04:43:08.331Z,13.20
2023-03-20T04:45:37.994Z,12.15
2023-03-20T04:48:06.631Z,12.40
2023-03-20T04:50:34.474Z,12.85
2023-03-20T04:53:02.233Z,13.18
2023-03-20T04:55:30.003Z,15.07
2023-03-20T04:57:57.784Z,11.52
2023-03-20T05:00:25.846Z,10.57
2023-03-20T05:02:55.005Z,13.43
2023-03-20T05:05:23.819Z,14.85
2023-03-20T05:07:51.796Z,10.35
2023-03-20T05:10:20.180Z,10.93
2023-03-20T05:12:48.661Z,15.77
2023-03-20T05:15:16.711Z,17.73
2023-03-20T05:17:44.472Z,21.20
2023-03-20T05:20:14.134Z,21.52
2023-03-20T05:22:42.146Z,16.90
2023-03-20T05:25:10.650Z,12.32
2023-03-20T05:27:38.464Z,15.73
2023-03-20T05:30:07.443Z,18.73
2023-03-20T05:32:36.922Z,31.65
2023-03-20T05:35:05.276Z,34.30
2023-03-20T05:37:34.664Z,23.63
2023-03-20T05:40:03.228Z,24.95
2023-03-20T05:42:31.324Z,16.83
2023-03-20T05:44:59.247Z,18.20
2023-03-20T05:47:26.996Z,19.52
2023-03-20T05:49:54.726Z,20.48
2023-03-20T05:52:23.332Z,19.10
2023-03-20T05:54:52.413Z,15.90
2023-03-20T05:57:20.767Z,18.48
2023-03-20T05:59:48.559Z,16.23
2023-03-20T06:02:17.295Z,22.40
2023-03-20T06:04:45.226Z,19.65
2023-03-20T06:07:12.977Z,24.05
2023-03-20T06:09:40.926Z,20.75
2023-03-20T06:12:10.607Z,24.10
2023-03-20T06:14:38.344Z,21.08
2023-03-20T06:17:06.102Z,24.23
2023-03-20T06:19:33.825Z,25.05
2023-03-20T06:22:01.803Z,25.42
2023-03-20T06:24:29.615Z,25.90
2023-03-20T06:26:57.489Z,26.83
2023-03-20T06:29:26.880Z,29.60
2023-03-20T06:31:54.600Z,29.20
2023-03-20T06:34:22.541Z,25.25
2023-03-20T06:36:50.347Z,33.88
2023-03-20T06:39:18.228Z,27.60
2023-03-20T06:41:46.211Z,25.48
2023-03-20T06:44:14.189Z,26.83
2023-03-20T06:46:43.477Z,28.60
2023-03-20T06:49:11.244Z,35.53
2023-03-20T06:51:39.157Z,24.42
2023-03-20T06:54:07.065Z,36.15
2023-03-20T06:56:34.857Z,31.38
2023-03-20T06:59:02.771Z,36.50
2023-03-20T07:01:30.832Z,27.17
2023-03-20T07:04:01.114Z,31.77
2023-03-20T07:06:29.090Z,28.83
2023-03-20T07:08:56.996Z,30.35
2023-03-20T07:11:25.003Z,26.88
2023-03-20T07:13:52.769Z,26.88
2023-03-20T07:16:21.061Z,27.92
2023-03-20T07:18:48.815Z,26.88
2023-03-20T07:21:21.873Z,27.00
2023-03-20T07:23:49.851Z,27.33
2023-03-20T07:26:18.053Z,26.00
2023-03-20T07:28:45.913Z,27.77
2023-03-20T07:31:20.620Z,28.30
2023-03-20T07:33:48.570Z,27.17
2023-03-20T07:36:16.375Z,28.27
2023-03-20T07:38:45.681Z,29.20
2023-03-20T07:41:13.643Z,27.80
2023-03-20T07:43:42.989Z,27.65
2023-03-20T07:46:12.075Z,24.48
2023-03-20T07:48:39.960Z,29.98
2023-03-20T07:51:08.516Z,26.40
2023-03-20T07:53:37.045Z,26.85
2023-03-20T07:56:07.083Z,29.83
2023-03-20T07:58:34.816Z,28.17
2023-03-20T08:01:03.599Z,28.52
2023-03-20T08:03:31.721Z,29.90
2023-03-20T08:05:59.581Z,28.48
2023-03-20T08:08:28.419Z,31.77
2023-03-20T08:10:56.515Z,28.25
2023-03-20T08:13:25.762Z,28.40
2023-03-20T08:15:53.588Z,34.65
2023-03-20T08:18:22.567Z,30.13
2023-03-20T08:20:50.853Z,28.98
2023-03-20T08:23:20.658Z,34.22
2023-03-20T08:25:49.643Z,30.52
2023-03-20T08:28:18.199Z,35.08
2023-03-20T08:30:47.619Z,31.15
2023-03-20T08:33:17.368Z,29.10
2023-03-20T08:35:45.285Z,30.55
2023-03-20T08:38:14.633Z,32.95
2023-03-20T08:40:42.888Z,31.67
2023-03-20T08:43:10.762Z,30.45
2023-03-20T08:45:38.877Z,27.50
2023-03-20T08:48:08.721Z,24.42
2023-03-20T08:50:37.349Z,26.10
2023-03-20T08:53:05.298Z,30.30
2023-03-20T08:55:33.177Z,26.60
2023-03-20T08:58:01.130Z,28.00
2023-03-20T09:00:28.938Z,32.00
2023-03-20T09:02:57.142Z,32.58
2023-03-20T09:05:26.453Z,27.65
2023-03-20T09:07:54.341Z,30.23
2023-03-20T09:10:23.330Z,30.38
2023-03-20T09:12:51.187Z,24.40
2023-03-20T09:15:19.192Z,25.90
2023-03-20T09:17:47.222Z,28.13
2023-03-20T09:20:15.071Z,23.90
2023-03-20T09:22:45.443Z,26.50
2023-03-20T09:25:13.899Z,26.45
2023-03-20T09:27:42.151Z,25.60
2023-03-20T09:30:11.917Z,27.45
2023-03-20T09:32:39.894Z,26.25
2023-03-20T09:35:08.041Z,26.83
2023-03-20T09:37:36.497Z,25.05
2023-03-20T09:40:06.844Z,26.75
2023-03-20T09:42:47.170Z,26.23
2023-03-20T09:45:24.885Z,29.30
2023-03-20T09:48:00.048Z,27.67
2023-03-20T09:50:35.730Z,26.02
2023-03-20T09:53:09.306Z,27.17
2023-03-20T09:55:40.815Z,26.80
2023-03-20T09:58:14.908Z,23.85
2023-03-20T10:00:47.337Z,25.98
2023-03-20T10:03:22.061Z,25.92
2023-03-20T10:05:55.573Z,25.38
2023-03-20T10:08:29.024Z,26.83
2023-03-20T10:11:13.041Z,27.65
2023-03-20T10:14:03.912Z,28.83
2023-03-20T10:16:46.708Z,28.02
2023-03-20T10:19:23.168Z,25.75
2023-03-20T10:21:58.242Z,26.23
2023-03-20T10:24:30.659Z,29.67
2023-03-20T10:27:07.915Z,30.30
2023-03-20T10:29:48.948Z,26.55
2023-03-20T10:32:24.835Z,31.73
2023-03-20T10:35:03.023Z,28.13
2023-03-20T10:37:43.837Z,28.48
2023-03-20T10:40:27.713Z,28.15
2023-03-20T10:43:00.564Z,31.70
2023-03-20T10:45:35.854Z,30.58
2023-03-20T10:48:08.050Z,29.42
2023-03-20T10:50:40.829Z,29.10
2023-03-20T10:53:09.517Z,29.42
2023-03-20T10:55:41.466Z,30.08
2023-03-20T10:58:18.975Z,31.52
2023-03-20T11:00:47.052Z,30.33
2023-03-20T11:03:23.440Z,30.63
2023-03-20T11:06:08.936Z,31.92
2023-03-20T11:08:40.773Z,37.17
2023-03-20T11:11:09.146Z,37.17
2023-03-20T11:13:40.778Z,35.13
2023-03-20T11:16:23.289Z,36.60
2023-03-20T11:18:52.631Z,33.28
2023-03-20T11:21:24.083Z,31.67
2023-03-20T11:23:52.547Z,35.22
2023-03-20T11:26:29.050Z,30.88
2023-03-20T11:29:00.559Z,34.50
2023-03-20T11:31:35.500Z,31.60
2023-03-20T11:34:12.733Z,33.55
2023-03-20T11:36:41.352Z,30.30
2023-03-20T11:39:15.159Z,29.20
2023-03-20T11:41:48.563Z,31.98
2023-03-20T11:44:26.252Z,27.90
2023-03-20T11:47:03.637Z,32.17
2023-03-20T11:49:33.075Z,26.88
2023-03-20T11:52:04.195Z,28.20
2023-03-20T11:54:32.187Z,29.90
2023-03-20T11:57:01.357Z,26.50
2023-03-20T11:59:34.530Z,28.00
2023-03-20T12:02:05.287Z,24.42
2023-03-20T12:04:37.440Z,24.73
2023-03-20T12:07:13.252Z,24.63
2023-03-20T12:09:43.997Z,21.33
2023-03-20T12:12:20.568Z,22.30
2023-03-20T12:14:58.205Z,24.60
2023-03-20T12:17:33.891Z,23.98
2023-03-20T12:20:07.877Z,23.23
2023-03-20T12:22:39.717Z,25.10
2023-03-20T12:25:20.086Z,25.58
2023-03-20T12:27:56.788Z,24.70
2023-03-20T12:30:33.182Z,27.00
2023-03-20T12:33:05.611Z,28.55
2023-03-20T12:35:37.695Z,31.50
2023-03-20T12:38:13.630Z,29.45
2023-03-20T12:40:44.739Z,31.75
2023-03-20T12:43:16.856Z,29.02
2023-03-20T12:45:53.966Z,30.88
2023-03-20T12:48:40.968Z,29.70
2023-03-20T12:51:17.565Z,27.42
2023-03-20T12:53:56.422Z,24.80
2023-03-20T12:56:51.502Z,31.85
2023-03-20T12:59:28.332Z,25.27
2023-03-20T13:02:04.854Z,22.83
2023-03-20T13:04:59.236Z,20.58
2023-03-20T13:07:50.482Z,18.00
2023-03-20T13:10:22.426Z,12.98
2023-03-20T13:13:05.575Z,11.13
2023-03-20T13:15:49.308Z,11.55
2023-03-20T13:18:23.682Z,11.15
2023-03-20T13:20:53.659Z,8.82
2023-03-20T13:23:27.296Z,7.40
2023-03-20T13:26:17.174Z,7.13
2023-03-20T13:28:56.061Z,8.55
2023-03-20T13:31:47.029Z,7.50
2023-03-20T13:34:29.999Z,4.07
2023-03-20T13:37:22.393Z,2.00
2023-03-20T13:40:01.837Z,1.60
2023-03-20T13:42:33.939Z,1.58
2023-03-20T13:45:08.776Z,1.38
2023-03-20T13:47:39.228Z,1.27
2023-03-20T13:50:26.668Z,1.35
2023-03-20T13:53:02.757Z,1.00
2023-03-20T13:55:42.304Z,1.40
2023-03-20T13:58:24.126Z,1.17
2023-03-20T14:00:56.201Z,1.30
2023-03-20T14:03:28.607Z,1.90
2023-03-20T14:05:57.918Z,1.08
2023-03-20T14:08:34.346Z,1.30
2023-03-20T14:11:32.558Z,1.30
2023-03-20T14:14:07.414Z,1.10
2023-03-20T14:16:35.517Z,1.20
2023-03-20T14:19:10.588Z,1.30
2023-03-20T14:21:46.757Z,3.58
2023-03-20T14:24:19.568Z,1.40
2023-03-20T14:26:51.115Z,1.40
2023-03-20T14:29:34.063Z,1.80
2023-03-20T14:32:23.122Z,1.30
2023-03-20T14:34:53.250Z,1.10
2023-03-20T14:37:32.109Z,3.25
2023-03-20T14:40:08.177Z,1.10
2023-03-20T14:42:49.448Z,1.40
2023-03-20T14:45:45.911Z,1.00
2023-03-20T14:48:26.685Z,1.10
2023-03-20T14:51:07.387Z,1.45
2023-03-20T14:53:36.642Z,1.10
2023-03-20T14:56:10.523Z,1.25
2023-03-20T14:58:56.730Z,1.15
2023-03-20T15:01:47.981Z,1.13
2023-03-20T15:04:28.143Z,1.23
2023-03-20T15:07:01.151Z,1.80
2023-03-20T15:09:34.073Z,1.27
2023-03-20T15:12:04.400Z,1.10
2023-03-20T15:14:39.316Z,1.10
2023-03-20T15:17:07.295Z,1.30
2023-03-20T15:19:41.220Z,1.15
2023-03-20T15:22:17.257Z,1.42
2023-03-20T15:24:53.204Z,1.10
2023-03-20T15:27:21.586Z,1.10
2023-03-20T15:29:53.354Z,1.10
2023-03-20T15:32:21.920Z,1.40
2023-03-20T15:34:51.090Z,2.42
2023-03-20T15:37:22.993Z,1.20
2023-03-20T15:39:56.195Z,1.33
2023-03-20T15:42:26.686Z,1.27
2023-03-20T15:44:55.844Z,1.20
2023-03-20T15:47:25.046Z,1.20
2023-03-20T15:49:55.756Z,1.27
2023-03-20T15:52:29.778Z,1.40
2023-03-20T15:55:01.361Z,1.10
2023-03-20T15:57:35.571Z,1.10
2023-03-20T16:00:05.819Z,1.20
2023-03-20T16:02:33.962Z,1.20
2023-03-20T16:05:01.972Z,1.17
2023-03-20T16:07:31.801Z,1.20
2023-03-20T16:10:01.228Z,1.25
2023-03-20T16:12:29.074Z,1.20
2023-03-20T16:14:59.096Z,1.30
2023-03-20T16:17:28.820Z,1.30
2023-03-20T16:19:57.092Z,1.50
2023-03-20T16:22:28.254Z,1.40
2023-03-20T16:24:59.907Z,1.50
2023-03-20T16:27:31.488Z,1.45
2023-03-20T16:29:59.646Z,1.40
2023-03-20T16:32:37.054Z,2.65
2023-03-20T16:35:09.308Z,1.50
2023-03-20T16:37:44.365Z,1.60
2023-03-20T16:40:17.148Z,1.50
2023-03-20T16:42:46.730Z,1.30
2023-03-20T16:45:22.733Z,2.85
2023-03-20T16:47:50.786Z,1.70
2023-03-20T16:50:22.036Z,2.38
2023-03-20T16:52:52.607Z,2.65
2023-03-20T16:55:26.178Z,1.63
2023-03-20T16:57:59.093Z,2.17
2023-03-20T17:00:30.329Z,4.35
2023-03-20T17:03:10.535Z,1.60
2023-03-20T17:05:55.218Z,1.77
2023-03-20T17:08:35.135Z,1.60
2023-03-20T17:11:10.433Z,1.60
2023-03-20T17:13:40.142Z,1.83
2023-03-20T17:16:11.221Z,2.00
2023-03-20T17:18:39.345Z,2.72
2023-03-20T17:21:08.214Z,2.65
2023-03-20T17:23:36.113Z,2.20
2023-03-20T17:26:04.166Z,4.10
2023-03-20T17:28:35.985Z,3.20
2023-03-20T17:31:06.480Z,5.07
2023-03-20T17:33:36.360Z,3.97
2023-03-20T17:36:04.588Z,2.67
2023-03-20T17:38:32.648Z,1.55
2023-03-20T17:41:00.418Z,1.60
2023-03-20T17:43:28.186Z,2.08
2023-03-20T17:45:56.189Z,2.05
2023-03-20T17:48:26.936Z,6.18
2023-03-20T17:50:54.779Z,3.70
2023-03-20T17:53:26.271Z,2.35
2023-03-20T17:55:54.287Z,1.50
2023-03-20T17:58:24.363Z,1.60
2023-03-20T18:00:53.714Z,2.55
2023-03-20T18:03:22.495Z,1.77
2023-03-20T18:05:52.488Z,2.70
2023-03-20T18:08:23.273Z,1.80
2023-03-20T18:10:52.805Z,4.47
2023-03-20T18:13:21.263Z,1.80
2023-03-20T18:15:49.739Z,1.67
2023-03-20T18:18:17.714Z,1.60
2023-03-20T18:20:46.989Z,4.13
2023-03-20T18:23:16.625Z,1.83
2023-03-20T18:25:44.444Z,2.50
2023-03-20T18:28:23.364Z,2.00
2023-03-20T18:30:51.714Z,1.67
2023-03-20T18:33:25.070Z,2.08
2023-03-20T18:35:53.116Z,2.05
2023-03-20T18:38:24.747Z,3.03
2023-03-20T18:40:52.754Z,3.58
2023-03-20T18:43:20.938Z,2.05
2023-03-20T18:45:49.009Z,2.33
2023-03-20T18:48:17.836Z,1.98
2023-03-20T18:50:50.869Z,2.80
2023-03-20T18:53:18.976Z,2.20
2023-03-20T18:55:48.218Z,2.35
2023-03-20T18:58:22.577Z,5.07
2023-03-20T19:00:50.911Z,1.95
2023-03-20T19:03:18.707Z,2.28
2023-03-20T19:05:46.585Z,2.30
2023-03-20T19:08:16.922Z,2.10
2023-03-20T19:10:45.125Z,2.10
2023-03-20T19:13:16.849Z,2.08
2023-03-20T19:15:45.442Z,3.95
2023-03-20T19:18:17.235Z,2.50
2023-03-20T19:20:46.499Z,4.78
2023-03-20T19:23:15.675Z,4.80
2023-03-20T19:25:46.143Z,2.50
2023-03-20T19:28:21.956Z,2.03
2023-03-20T19:30:52.255Z,2.10
2023-03-20T19:33:20.214Z,2.30
2023-03-20T19:36:12.075Z,3.20
2023-03-20T19:38:37.411Z,2.20
2023-03-20T19:41:05.803Z,2.28
2023-03-20T19:43:51.467Z,2.30
2023-03-20T19:46:38.213Z,2.75
2023-03-20T19:49:07.074Z,2.30
2023-03-20T19:51:35.086Z,2.78
2023-03-20T19:54:04.114Z,2.40
2023-03-20T19:56:31.976Z,2.38
2023-03-20T19:59:01.397Z,4.43
2023-03-20T20:01:29.251Z,2.30
2023-03-20T20:03:58.327Z,2.95
2023-03-20T20:06:31.331Z,3.75
2023-03-20T20:09:01.311Z,2.92
2023-03-20T20:11:29.598Z,3.50
2023-03-20T20:14:06.275Z,2.80
2023-03-20T20:16:39.700Z,2.70
2023-03-20T20:19:07.823Z,2.30
2023-03-20T20:22:19.638Z,2.30
2023-03-20T20:24:23.988Z,4.70
2023-03-20T20:26:59.987Z,2.85
2023-03-20T20:29:35.064Z,2.10
2023-03-20T20:32:04.237Z,3.20
2023-03-20T20:40:10.197Z,4.80
2023-03-20T20:42:38.371Z,3.38
2023-03-20T20:45:08.599Z,2.15
2023-03-20T20:47:37.792Z,1.88
2023-03-20T20:50:08.669Z,3.22
2023-03-20T20:52:39.172Z,2.10
2023-03-20T20:55:36.579Z,2.00
2023-03-20T20:57:59.382Z,2.00
2023-03-20T21:00:45.271Z,3.28
2023-03-20T21:03:17.442Z,3.28
2023-03-20T21:05:45.342Z,2.65
2023-03-20T21:08:14.249Z,2.00
2023-03-20T21:10:42.488Z,2.13
2023-03-20T21:13:12.390Z,4.68
2023-03-20T21:15:40.989Z,2.00
2023-03-20T21:18:09.020Z,3.38
2023-03-20T21:20:39.385Z,4.32
2023-03-20T21:23:07.213Z,2.08
2023-03-20T21:25:40.936Z,3.67
2023-03-20T21:28:09.944Z,2.78
2023-03-20T21:30:44.327Z,4.20
2023-03-20T21:33:24.268Z,2.05
2023-03-20T21:35:54.353Z,2.72
2023-03-20T21:38:58.655Z,3.72
2023-03-20T21:41:11.150Z,2.60
2023-03-20T21:43:39.486Z,4.00
2023-03-20T21:46:42.287Z,2.65
2023-03-20T21:55:12.883Z,2.53
2023-03-20T22:01:10.956Z,2.30
2023-03-20T22:03:10.007Z,5.78
2023-03-20T22:20:29.250Z,3.30
2023-03-20T22:34:32.571Z,4.20
2023-03-20T22:40:09.956Z,3.88
2023-03-20T22:45:02.204Z,4.55
2023-03-20T22:47:31.864Z,5.50
2023-03-20T22:49:59.840Z,10.57
2023-03-20T22:52:38.345Z,6.43
2023-03-20T22:55:13.801Z,7.28
2023-03-20T22:57:52.837Z,6.15
2023-03-20T23:00:27.721Z,9.77
2023-03-20T23:03:06.726Z,8.88
2023-03-20T23:05:42.201Z,9.00
2023-03-20T23:08:11.884Z,9.13
2023-03-20T23:10:44.204Z,8.15
2023-03-20T23:13:14.329Z,9.15
2023-03-20T23:15:42.502Z,10.80
2023-03-20T23:18:11.716Z,10.88
2023-03-20T23:20:39.725Z,9.48
2023-03-20T23:23:07.697Z,9.02
2023-03-20T23:25:39.797Z,28.20
2023-03-20T23:28:09.089Z,19.98
2023-03-20T23:30:46.786Z,14.82
2023-03-20T23:33:19.737Z,23.30
2023-03-20T23:35:48.806Z,38.75
2023-03-20T23:38:17.559Z,21.23
2023-03-20T23:40:50.156Z,20.25
2023-03-20T23:43:18.623Z,84.88
2023-03-20T23:45:48.097Z,24.88
2023-03-20T23:48:16.917Z,57.83
2023-03-20T23:50:52.910Z,76.63
2023-03-20T23:53:21.635Z,51.10
2023-03-20T23:55:50.920Z,33.20
2023-03-20T23:58:19.278Z,49.95
